createdAt,value
2023-04-18T00:00:54.414Z,0.91
2023-04-18T00:03:59.223Z,0.64
2023-04-18T00:07:04.965Z,0.38
2023-04-18T00:10:10.936Z,0.43
2023-04-18T00:13:15.591Z,0.47
2023-04-18T00:16:20.571Z,0.57
2023-04-18T00:19:25.358Z,0.67
2023-04-18T00:22:31.079Z,0.89
2023-04-18T00:25:37.468Z,0.74
2023-04-18T00:28:43.618Z,0.75
2023-04-18T00:31:48.400Z,0.50
2023-04-18T00:34:53.307Z,0.65
2023-04-18T00:37:58.254Z,0.67
2023-04-18T00:41:04.075Z,0.93
2023-04-18T00:44:09.341Z,0.95
2023-04-18T00:47:14.267Z,1.36
2023-04-18T00:50:19.677Z,1.65
2023-04-18T00:53:25.133Z,2.02
2023-04-18T00:56:31.129Z,2.10
2023-04-18T00:59:36.723Z,1.98
2023-04-18T01:02:41.361Z,2.16
2023-04-18T01:05:47.403Z,2.16
2023-04-18T01:08:50.995Z,2.30
2023-04-18T01:11:54.614Z,2.62
2023-04-18T01:14:59.665Z,2.57
2023-04-18T01:18:05.537Z,2.54
2023-04-18T01:21:10.967Z,2.54
2023-04-18T01:24:17.357Z,2.50
2023-04-18T01:27:20.951Z,2.61
2023-04-18T01:30:25.053Z,3.31
2023-04-18T01:33:28.856Z,3.71
2023-04-18T01:36:33.551Z,3.81
2023-04-18T01:39:39.028Z,3.64
2023-04-18T01:42:42.794Z,3.78
2023-04-18T01:45:47.153Z,3.57
2023-04-18T01:48:50.960Z,3.29
2023-04-18T01:51:56.544Z,3.23
2023-04-18T01:55:03.068Z,3.15
2023-04-18T01:58:06.964Z,3.34
2023-04-18T02:01:12.235Z,3.49
2023-04-18T02:04:15.758Z,3.81
2023-04-18T02:07:19.463Z,4.05
2023-04-18T02:10:22.612Z,4.36
2023-04-18T02:13:26.303Z,4.80
2023-04-18T02:16:30.443Z,5.13
2023-04-18T02:19:33.757Z,5.47
2023-04-18T02:22:41.318Z,5.73
2023-04-18T02:25:46.055Z,5.63
2023-04-18T02:28:50.123Z,5.54
2023-04-18T02:31:54.530Z,5.54
2023-04-18T02:34:57.822Z,5.73
2023-04-18T02:38:01.853Z,5.43
2023-04-18T02:41:06.212Z,5.44
2023-04-18T02:44:10.152Z,5.64
2023-04-18T02:47:18.935Z,5.78
2023-04-18T02:50:23.178Z,5.99
2023-04-18T02:53:27.977Z,6.25
2023-04-18T02:56:32.291Z,6.47
2023-04-18T02:59:59.745Z,6.57
2023-04-18T03:03:23.793Z,6.83
2023-04-18T03:06:43.445Z,6.95
2023-04-18T03:09:48.863Z,7.12
2023-04-18T03:12:58.239Z,7.15
2023-04-18T03:16:03.589Z,6.97
2023-04-18T03:19:12.987Z,7.16
2023-04-18T03:22:21.284Z,7.18
2023-04-18T03:25:37.366Z,7.22
2023-04-18T03:28:43.302Z,7.32
2023-04-18T03:31:51.045Z,7.26
2023-04-18T03:34:57.534Z,7.18
2023-04-18T03:38:04.952Z,7.16
2023-04-18T03:41:14.898Z,7.20
2023-04-18T03:44:20.210Z,7.20
2023-04-18T03:47:24.373Z,7.26
2023-04-18T03:50:33.252Z,7.23
2023-04-18T03:53:41.060Z,7.36
2023-04-18T03:56:47.473Z,7.22
2023-04-18T03:59:52.376Z,7.33
2023-04-18T04:02:57.812Z,7.25
2023-04-18T04:06:03.814Z,6.98
2023-04-18T04:09:10.676Z,7.15
2023-04-18T04:12:16.427Z,7.30
2023-04-18T04:15:22.592Z,7.53
2023-04-18T04:18:36.700Z,7.57
2023-04-18T04:21:42.713Z,7.63
2023-04-18T04:24:54.811Z,7.91
2023-04-18T04:28:08.949Z,7.97
2023-04-18T04:31:25.533Z,8.01
2023-04-18T04:34:32.442Z,7.99
2023-04-18T04:37:39.635Z,8.05
2023-04-18T04:40:55.040Z,8.49
2023-04-18T04:44:00.346Z,8.59
2023-04-18T04:47:12.453Z,8.59
2023-04-18T04:50:20.655Z,8.76
2023-04-18T04:53:28.680Z,7.90
2023-04-18T04:56:36.336Z,7.18
2023-04-18T04:59:44.702Z,7.04
2023-04-18T05:02:52.146Z,7.33
2023-04-18T05:05:58.145Z,6.91
2023-04-18T05:09:03.752Z,6.92
2023-04-18T05:12:10.159Z,7.09
2023-04-18T05:15:16.841Z,6.66
2023-04-18T05:18:23.148Z,6.23
2023-04-18T05:21:27.111Z,6.15
2023-04-18T05:24:30.637Z,6.16
2023-04-18T05:27:33.883Z,6.02
2023-04-18T05:30:38.613Z,6.08
2023-04-18T05:33:41.739Z,5.94
2023-04-18T05:36:45.525Z,6.06
2023-04-18T05:39:51.569Z,6.08
2023-04-18T05:42:54.720Z,6.32
2023-04-18T05:45:58.658Z,6.58
2023-04-18T05:49:02.187Z,6.91
2023-04-18T05:52:05.859Z,6.98
2023-04-18T05:55:10.164Z,6.95
2023-04-18T05:58:13.298Z,7.02
2023-04-18T06:01:19.313Z,7.11
2023-04-18T06:04:22.805Z,7.19
2023-04-18T06:07:26.283Z,7.16
2023-04-18T06:10:30.413Z,7.23
2023-04-18T06:13:34.647Z,7.32
2023-04-18T06:16:41.736Z,7.26
2023-04-18T06:19:46.320Z,7.33
2023-04-18T06:22:49.468Z,7.50
2023-04-18T06:25:52.880Z,7.64
2023-04-18T06:28:58.784Z,7.63
2023-04-18T06:32:03.563Z,7.60
2023-04-18T06:35:08.141Z,7.56
2023-04-18T06:38:15.629Z,7.59
2023-04-18T06:41:20.602Z,7.50
2023-04-18T06:44:26.469Z,7.45
2023-04-18T06:47:31.104Z,7.04
2023-04-18T06:50:38.176Z,6.66
2023-04-18T06:53:42.289Z,6.18
2023-04-18T06:56:47.039Z,6.04
2023-04-18T06:59:52.478Z,6.12
2023-04-18T07:02:58.219Z,6.05
2023-04-18T07:06:03.078Z,6.06
2023-04-18T07:09:10.088Z,6.29
2023-04-18T07:12:15.998Z,6.56
2023-04-18T07:15:21.363Z,6.49
2023-04-18T07:18:36.709Z,6.76
2023-04-18T07:21:44.763Z,6.92
2023-04-18T07:24:51.065Z,6.67
2023-04-18T07:28:00.973Z,6.76
2023-04-18T07:31:07.153Z,7.01
2023-04-18T07:34:13.596Z,7.20
2023-04-18T07:37:20.212Z,7.26
2023-04-18T07:40:26.438Z,7.39
2023-04-18T07:43:35.615Z,7.45
2023-04-18T07:46:45.381Z,7.64
2023-04-18T07:49:50.725Z,7.78
2023-04-18T07:52:57.196Z,8.15
2023-04-18T07:56:04.222Z,8.19
2023-04-18T07:59:09.140Z,8.50
2023-04-18T08:02:12.961Z,8.63
2023-04-18T08:05:18.259Z,8.42
2023-04-18T08:08:22.023Z,8.71
2023-04-18T08:11:26.168Z,8.80
2023-04-18T08:14:31.019Z,9.10
2023-04-18T08:17:36.941Z,9.26
2023-04-18T08:20:43.414Z,9.00
2023-04-18T08:23:48.769Z,8.92
2023-04-18T08:26:54.318Z,8.64
2023-04-18T08:30:00.541Z,7.91
2023-04-18T08:33:06.237Z,7.77
2023-04-18T08:36:13.418Z,7.56
2023-04-18T08:39:22.706Z,7.45
2023-04-18T08:45:49.575Z,7.39
2023-04-18T08:49:00.292Z,6.98
2023-04-18T08:52:15.060Z,6.70
2023-04-18T08:55:23.574Z,6.63
2023-04-18T08:58:36.827Z,6.49
2023-04-18T09:01:58.428Z,6.04
2023-04-18T09:05:21.171Z,5.81
2023-04-18T09:08:29.943Z,5.63
2023-04-18T09:11:35.003Z,5.71
2023-04-18T09:14:44.495Z,5.70
2023-04-18T09:17:54.386Z,5.57
2023-04-18T09:21:16.631Z,5.46
2023-04-18T09:24:23.437Z,5.23
2023-04-18T09:27:27.689Z,5.16
2023-04-18T09:30:40.180Z,4.95
2023-04-18T09:33:57.739Z,4.85
2023-04-18T09:37:13.159Z,4.78
2023-04-18T09:40:20.639Z,4.91
2023-04-18T09:43:30.055Z,4.87
2023-04-18T09:46:39.422Z,4.85
2023-04-18T09:49:47.594Z,4.81
2023-04-18T09:52:56.233Z,4.81
2023-04-18T09:56:03.611Z,4.87
2023-04-18T09:59:12.481Z,5.13
2023-04-18T10:02:23.822Z,5.68
2023-04-18T10:05:34.753Z,5.99
2023-04-18T10:08:41.990Z,6.34
2023-04-18T10:11:48.532Z,6.91
2023-04-18T10:14:56.476Z,6.30
2023-04-18T10:18:06.228Z,5.66
2023-04-18T10:21:14.347Z,4.89
2023-04-18T10:25:07.016Z,4.50
2023-04-18T10:28:11.578Z,3.92
2023-04-18T10:31:18.313Z,3.57
2023-04-18T10:34:22.257Z,3.47
2023-04-18T10:37:27.849Z,3.24
2023-04-18T10:40:35.312Z,3.05
2023-04-18T10:44:18.667Z,2.95
2023-04-18T10:47:22.619Z,2.88
2023-04-18T10:50:27.586Z,2.87
2023-04-18T10:53:31.093Z,2.89
2023-04-18T10:56:35.535Z,2.98
2023-04-18T10:59:53.050Z,3.03
2023-04-18T11:02:59.254Z,3.09
2023-04-18T11:06:04.955Z,3.20
2023-04-18T11:09:14.244Z,3.33
2023-04-18T11:12:18.359Z,3.46
2023-04-18T11:15:24.062Z,3.87
2023-04-18T11:18:27.552Z,4.19
2023-04-18T11:21:31.140Z,4.03
2023-04-18T11:24:35.902Z,3.89
2023-04-18T11:27:42.463Z,3.77
2023-04-18T11:30:49.343Z,3.67
2023-04-18T11:33:55.726Z,3.54
2023-04-18T11:37:00.589Z,3.46
2023-04-18T11:40:15.605Z,3.31
2023-04-18T11:43:25.978Z,3.02
2023-04-18T11:46:40.365Z,2.92
2023-04-18T11:49:46.199Z,2.74
2023-04-18T11:52:57.364Z,2.65
2023-04-18T12:03:21.642Z,2.19
2023-04-18T12:06:33.279Z,2.06
2023-04-18T12:13:09.698Z,1.89
2023-04-18T12:16:23.403Z,1.75
2023-04-18T12:23:10.356Z,1.64
2023-04-18T12:37:44.851Z,1.44
2023-04-18T12:40:50.170Z,1.40
2023-04-18T12:43:54.966Z,1.39
2023-04-18T13:38:49.142Z,-0.19
2023-04-18T13:41:56.082Z,-0.17
2023-04-18T13:48:18.601Z,-0.18
2023-04-18T13:51:22.013Z,-0.18
2023-04-18T13:54:30.299Z,-0.15
2023-04-18T13:58:02.148Z,-0.21
2023-04-18T14:01:07.336Z,-0.23
2023-04-18T14:04:11.509Z,-0.29
2023-04-18T14:10:50.328Z,-0.35
2023-04-18T14:13:58.942Z,-0.40
2023-04-18T14:17:29.765Z,-0.45
2023-04-18T14:20:37.830Z,-0.45
2023-04-18T14:30:41.956Z,-0.46
2023-04-18T14:33:45.438Z,-0.45
2023-04-18T14:36:49.984Z,-0.45
2023-04-18T14:44:15.497Z,-0.42
2023-04-18T14:47:30.450Z,-0.38
2023-04-18T14:57:46.780Z,-0.52
2023-04-18T15:04:56.290Z,-0.52
2023-04-18T15:09:09.573Z,-0.49
2023-04-18T15:16:14.840Z,-0.52
2023-04-18T15:28:08.515Z,-0.49
2023-04-18T15:35:02.229Z,-0.56
2023-04-18T15:44:45.126Z,-0.49
2023-04-18T15:51:10.556Z,-0.33
2023-04-18T15:54:15.458Z,-0.29
2023-04-18T15:57:23.289Z,-0.22
2023-04-18T16:00:31.097Z,-0.17
2023-04-18T16:06:56.831Z,-0.30
2023-04-18T16:13:45.037Z,-0.40
2023-04-18T16:16:51.897Z,-0.43
2023-04-18T16:19:59.184Z,-0.39
2023-04-18T16:23:04.222Z,-0.32
2023-04-18T16:26:10.475Z,-0.23
2023-04-18T16:29:18.912Z,-0.19
2023-04-18T16:32:24.027Z,-0.18
2023-04-18T16:35:27.985Z,-0.12
2023-04-18T16:38:32.465Z,-0.10
2023-04-18T16:41:36.517Z,-0.12
2023-04-18T16:44:41.488Z,-0.12
2023-04-18T16:47:45.219Z,-0.05
2023-04-18T16:50:49.655Z,-0.01
2023-04-18T16:53:53.623Z,0.03
2023-04-18T16:56:58.013Z,0.06
2023-04-18T17:00:03.625Z,0.14
2023-04-18T17:03:11.001Z,0.20
2023-04-18T17:06:15.485Z,0.21
2023-04-18T17:09:23.635Z,0.20
2023-04-18T17:12:28.255Z,0.23
2023-04-18T17:15:33.326Z,0.05
2023-04-18T17:18:37.080Z,-0.07
2023-04-18T17:21:43.394Z,-0.15
2023-04-18T17:24:46.753Z,-0.29
2023-04-18T17:27:51.134Z,-0.38
2023-04-18T17:30:54.600Z,-0.38
2023-04-18T17:33:59.342Z,-0.26
2023-04-18T17:37:04.672Z,-0.22
2023-04-18T17:40:11.657Z,-0.35
2023-04-18T17:43:15.524Z,-0.39
2023-04-18T17:46:19.681Z,-0.57
2023-04-18T17:49:23.718Z,-0.56
2023-04-18T17:52:29.368Z,-0.52
2023-04-18T17:55:33.111Z,-0.45
2023-04-18T17:58:36.700Z,-0.45
2023-04-18T18:01:43.137Z,-0.49
2023-04-18T18:04:49.284Z,-0.49
2023-04-18T18:07:54.020Z,-0.52
2023-04-18T18:10:58.495Z,-0.52
2023-04-18T18:14:02.720Z,-0.55
2023-04-18T18:17:06.706Z,-0.49
2023-04-18T18:20:16.263Z,-0.42
2023-04-18T18:23:20.671Z,-0.28
2023-04-18T18:26:24.026Z,-0.14
2023-04-18T18:29:29.868Z,-0.07
2023-04-18T18:32:34.087Z,0.06
2023-04-18T18:38:55.534Z,0.14
2023-04-18T18:41:59.673Z,0.06
2023-04-18T18:45:04.371Z,-0.07
2023-04-18T18:48:08.214Z,-0.23
2023-04-18T18:51:12.493Z,-0.14
2023-04-18T18:54:16.638Z,-0.07
2023-04-18T18:57:19.645Z,-0.07
2023-04-18T19:00:23.118Z,-0.01
2023-04-18T19:03:27.163Z,0.03
2023-04-18T19:06:30.566Z,0.02
2023-04-18T19:09:33.761Z,-0.17
2023-04-18T19:12:39.646Z,-0.28
2023-04-18T19:15:42.672Z,-0.40
2023-04-18T19:18:48.010Z,-0.48
2023-04-18T19:21:51.150Z,-0.70
2023-04-18T19:24:54.219Z,-0.84
2023-04-18T19:27:57.298Z,-0.77
2023-04-18T19:31:01.369Z,-0.67
2023-04-18T19:34:04.937Z,-0.73
2023-04-18T19:37:08.745Z,-0.70
2023-04-18T19:40:13.004Z,-0.63
2023-04-18T19:43:16.401Z,-0.49
2023-04-18T19:46:20.249Z,-0.33
2023-04-18T19:49:24.068Z,-0.19
2023-04-18T19:52:27.892Z,-0.10
2023-04-18T19:55:32.545Z,-0.08
2023-04-18T19:58:45.409Z,-0.10
2023-04-18T20:01:49.543Z,-0.14
2023-04-18T20:04:53.459Z,-0.12
2023-04-18T20:07:58.024Z,-0.04
2023-04-18T20:11:01.600Z,0.00
2023-04-18T20:14:05.541Z,0.06
2023-04-18T20:17:09.312Z,0.05
2023-04-18T20:20:13.990Z,0.02
2023-04-18T20:23:17.676Z,-0.01
2023-04-18T20:26:21.312Z,-0.07
2023-04-18T20:29:25.475Z,-0.05
2023-04-18T20:32:29.736Z,-0.15
2023-04-18T20:35:33.649Z,-0.23
2023-04-18T20:38:37.749Z,-0.35
2023-04-18T20:41:47.264Z,-0.39
2023-04-18T20:44:54.214Z,-0.32
2023-04-18T20:47:59.498Z,-0.17
2023-04-18T20:51:02.639Z,-0.23
2023-04-18T20:54:06.956Z,-0.14
2023-04-18T20:57:10.160Z,-0.05
2023-04-18T21:00:17.533Z,0.00
2023-04-18T21:03:21.177Z,-0.01
2023-04-18T21:06:24.356Z,-0.05
2023-04-18T21:09:28.497Z,-0.14
2023-04-18T21:12:32.144Z,-0.17
2023-04-18T21:15:36.806Z,-0.32
2023-04-18T21:18:40.984Z,-0.52
2023-04-18T21:21:44.333Z,-0.48
2023-04-18T21:24:48.779Z,-0.39
2023-04-18T21:27:52.455Z,-0.32
2023-04-18T21:30:56.401Z,-0.23
2023-04-18T21:34:03.255Z,-0.21
2023-04-18T21:37:07.026Z,-0.14
2023-04-18T21:40:12.885Z,-0.14
2023-04-18T21:43:16.207Z,-0.11
2023-04-18T21:46:20.170Z,-0.02
2023-04-18T21:49:23.358Z,0.05
2023-04-18T21:52:29.701Z,0.06
2023-04-18T21:55:33.106Z,0.21
2023-04-18T21:58:36.863Z,0.31
2023-04-18T22:01:40.202Z,0.41
2023-04-18T22:04:46.524Z,0.48
2023-04-18T22:07:58.116Z,0.53
2023-04-18T22:11:02.591Z,0.57
2023-04-18T22:14:06.501Z,0.64
2023-04-18T22:17:10.234Z,0.74
2023-04-18T22:20:14.396Z,0.71
2023-04-18T22:23:17.698Z,0.47
2023-04-18T22:26:21.660Z,0.53
2023-04-18T22:29:25.320Z,0.55
2023-04-18T22:32:29.172Z,0.50
2023-04-18T22:35:34.730Z,0.43
2023-04-18T22:38:38.787Z,0.58
2023-04-18T22:41:46.994Z,0.67
2023-04-18T22:44:51.305Z,0.85
2023-04-18T22:47:55.159Z,0.96
2023-04-18T22:50:58.477Z,1.09
2023-04-18T22:54:02.819Z,1.20
2023-04-18T22:57:06.402Z,1.22
2023-04-18T23:00:12.779Z,1.12
2023-04-18T23:03:16.219Z,0.86
2023-04-18T23:06:21.223Z,0.61
2023-04-18T23:09:26.021Z,0.67
2023-04-18T23:12:29.844Z,0.61
2023-04-18T23:15:38.649Z,0.61
2023-04-18T23:18:43.142Z,0.57
2023-04-18T23:21:49.660Z,0.50
2023-04-18T23:24:53.712Z,0.50
2023-04-18T23:28:04.389Z,0.30
2023-04-18T23:34:37.295Z,0.03
2023-04-18T23:37:40.887Z,-0.07
2023-04-18T23:40:45.964Z,-0.26
2023-04-18T23:47:07.487Z,-0.49
2023-04-18T23:50:13.080Z,-0.48
2023-04-18T23:53:20.993Z,-0.46
2023-04-18T23:56:25.163Z,-0.30
2023-04-18T23:59:29.352Z,-0.25
